Terminal Aerodrome Forecast
Issued by NWS

Home | Current Version | Previous Version | Text Only | Print | Product List | Glossary On
Versions: 1 2 3 4 5 6 7 8 9 10 11 12 13 14 15 16 17 18 19 20 21 22 23 24 25
000
FTUS46 KSGX 230908 AAA
TAFSAN
TAF AMD
KSAN 230908Z 2309/2412 VRB04KT P6SM OVC013
     FM231800 29008KT P6SM BKN015
     FM232100 29009KT P6SM SCT015
     FM240000 VRB05KT P6SM OVC010
     FM241000 VRB04KT P6SM OVC009=

USA.gov is the U.S. government's official web portal to all federal, state and local government web resources and services.